Flight Track Log - Related Links

Times and Time Zones

All times are in EDT time to prevent confusion due to time zone crossing. See the SWA3143 flight status page for this flight to view local times or setup timezone preferences in your user account.

Time Position Orientation Groundspeed Altitude Reporting Facility
EDT Latitude Longitude Course Direction KTS MPH feet Rate Location/Type
Sat 06:17:36 PM 40.3811 -80.1497 180° South 274 315 5,400  Level Cleveland Center
Sat 06:18:36 PM 40.3061 -80.1556 183° South 287 330 9,300 2,900 Climbing Cleveland Center
Sat 06:19:36 PM 40.2269 -80.1669 186° South 288 331 11,200 2,250 Climbing Cleveland Center
Sat 06:20:36 PM 40.1289 -80.1758 184° South 340 391 13,800 2,400 Climbing Cleveland Center
Sat 06:21:00 PM 39.8644 -80.2432 186° South  Level FlightAware Approximate
Sat 06:21:36 PM 40.0436 -80.1844 184° South 364 419 16,000  Level Cleveland Center
Sat 06:22:00 PM 39.7612 -80.2500 180° South  Level FlightAware Approximate
Sat 06:22:36 PM 39.9372 -80.1958 185° South 369 425 17,900  Level Cleveland Center
Sat 06:23:36 PM 39.8269 -80.2072 185° South 390 449 20,300 1,923 Climbing Cleveland Center
Sat 06:26:05 PM 39.5344 -80.2389 185° South 409 471 24,600 1,600 Climbing Washington Center
Sat 06:27:06 PM 39.4172 -80.2528 185° South 421 484 25,900 1,328 Climbing Washington Center
Sat 06:28:07 PM 39.2958 -80.2664 185° South 431 496 27,300 1,240 Climbing Washington Center
Sat 06:29:07 PM 39.1761 -80.2908 189° South 436 502 28,400 1,361 Climbing Washington Center
Sat 06:30:06 PM 39.0536 -80.3283 193° South 441 507 30,000 807 Climbing Washington Center
Sat 06:31:06 PM 38.9356 -80.3633 193° South 441 507 30,000 694 Level Washington Center
Sat 06:32:07 PM 38.8217 -80.3961 193° South 441 507 31,400 1,008 Climbing Washington Center
Sat 06:33:05 PM 38.7136 -80.4342 195° South 442 509 32,000 403 Climbing Washington Center
Sat 06:34:06 PM 38.5997 -80.4692 194° South 442 509 32,200 443 Climbing Washington Center
Sat 06:35:07 PM 38.4836 -80.5014 192° South 437 503 32,900 1,008 Climbing Washington Center
Sat 06:36:05 PM 38.3569 -80.5381 193° South 437 503 34,200 1,210 Climbing Washington Center
Sat 06:37:06 PM 38.2375 -80.5539 186° South 432 497 35,300 893 Climbing Washington Center
Sat 06:38:06 PM 38.1242 -80.5728 187° South 432 497 36,000 347 Climbing Washington Center
Sat 06:39:07 PM 38.0172 -80.5867 186° South 432 497 36,000  Level Washington Center
Sat 06:40:07 PM 37.8997 -80.6025 186° South 432 497 36,000  Level Washington Center
Sat 06:41:05 PM 37.7819 -80.6211 187° South 427 491 36,000  Level Washington Center
Sat 06:42:55 PM 37.5522 -80.6519 186° South 446 513 36,000  Level Atlanta Center
Sat 06:43:55 PM 37.4361 -80.6675 186° South 441 507 36,000  Level Atlanta Center
Sat 06:44:55 PM 37.3303 -80.6825 186° South 436 502 36,000  Level Atlanta Center
Sat 06:45:55 PM 37.2139 -80.6978 186° South 436 502 36,000  Level Atlanta Center
Sat 06:46:55 PM 37.0956 -80.7133 186° South 430 495 36,000  Level Atlanta Center
Sat 06:47:55 PM 36.9644 -80.7292 186° South 430 495 36,000  Level Atlanta Center
Sat 06:48:55 PM 36.8458 -80.7342 182° South 425 489 36,000  Level Atlanta Center
Sat 06:49:55 PM 36.7347 -80.7128 171° South 420 483 36,000  Level Atlanta Center
Sat 06:50:55 PM 36.6175 -80.6972 174° South 411 473 36,000  Level Atlanta Center
Sat 06:51:55 PM 36.5003 -80.6814 174° South 416 479 36,000  Level Atlanta Center
Sat 06:52:55 PM 36.3978 -80.6700 175° South 416 479 36,000  Level Atlanta Center
Sat 06:53:55 PM 36.2828 -80.6569 175° South 421 484 36,000  Level Atlanta Center
Sat 06:54:55 PM 36.1656 -80.6414 174° South 426 490 36,000  Level Atlanta Center
Sat 06:55:55 PM 36.0486 -80.6386 179° South 426 490 36,000  Level Atlanta Center
Sat 06:56:55 PM 35.9283 -80.6589 188° South 420 483 36,000  Level Atlanta Center
Sat 06:57:55 PM 35.7950 -80.6669 183° South 425 489 36,000  Level Atlanta Center
Sat 06:58:55 PM 35.6764 -80.6769 184° South 425 489 36,000  Level Atlanta Center
Sat 06:59:55 PM 35.5581 -80.6997 189° South 431 496 36,000  Level Atlanta Center
Sat 07:00:55 PM 35.4400 -80.7275 191° South 431 496 36,000  Level Atlanta Center
Sat 07:01:55 PM 35.3217 -80.7550 191° South 431 496 36,000  Level Atlanta Center
Sat 07:02:55 PM 35.2158 -80.7747 189° South 431 496 36,000  Level Atlanta Center
Sat 07:06:38 PM 34.7714 -80.8681 190° South 433 498 36,000  Level Jacksonville Center
Sat 07:07:38 PM 34.6639 -80.9311 206° Southwest 433 498 36,000  Level Jacksonville Center
Sat 07:08:38 PM 34.5717 -81.0267 220° Southwest 444 511 36,000  Level Jacksonville Center
Sat 07:09:38 PM 34.4792 -81.1269 222° Southwest 449 517 36,000  Level Jacksonville Center
Sat 07:10:38 PM 34.3886 -81.2244 222° Southwest 449 517 36,000  Level Jacksonville Center
Sat 07:11:38 PM 34.2961 -81.3267 222° Southwest 449 517 36,000  Level Jacksonville Center
Sat 07:12:38 PM 34.2117 -81.4236 224° Southwest 438 504 36,000  Level Jacksonville Center
Sat 07:13:38 PM 34.1189 -81.5231 222° Southwest 438 504 36,000  Level Jacksonville Center
Sat 07:14:38 PM 34.0133 -81.5947 209° Southwest 443 510 36,000  Level Jacksonville Center
Sat 07:15:38 PM 33.9056 -81.6614 207° Southwest 443 510 36,000  Level Jacksonville Center
Sat 07:16:38 PM 33.8019 -81.7353 211° Southwest 438 504 36,000  Level Jacksonville Center
Sat 07:17:38 PM 33.6917 -81.7892 202° Southwest 433 498 36,000  Level Jacksonville Center
Sat 07:18:38 PM 33.5731 -81.8156 191° South 428 493 36,000  Level Jacksonville Center
Sat 07:19:38 PM 33.4522 -81.8469 192° South 434 499 36,000  Level Jacksonville Center
Sat 07:20:38 PM 33.3336 -81.8758 192° South 439 505 36,000  Level Jacksonville Center
Sat 07:21:38 PM 33.2147 -81.9044 191° South 439 505 36,000  Level Jacksonville Center
Sat 07:22:38 PM 33.1003 -81.9331 192° South 433 498 36,000  Level Jacksonville Center
Sat 07:23:38 PM 32.9856 -81.9639 193° South 428 493 36,000  Level Jacksonville Center
Sat 07:24:38 PM 32.8564 -81.9925 191° South 428 493 36,000  Level Jacksonville Center
Sat 07:25:38 PM 32.7397 -82.0208 192° South 428 493 36,000  Level Jacksonville Center
Sat 07:26:38 PM 32.6231 -82.0489 191° South 428 493 36,000  Level Jacksonville Center
Sat 07:27:38 PM 32.5022 -82.0822 193° South 433 498 36,000  Level Jacksonville Center
Sat 07:28:38 PM 32.3856 -82.1128 192° South 427 491 36,000  Level Jacksonville Center
Sat 07:29:38 PM 32.2667 -82.1408 191° South 438 504 36,000  Level Jacksonville Center
Sat 07:30:38 PM 32.1456 -82.1689 191° South 438 504 36,000  Level Jacksonville Center
Sat 07:31:38 PM 32.0247 -82.1894 188° South 443 510 36,000  Level Jacksonville Center
Sat 07:32:38 PM 31.9161 -82.1975 184° South 443 510 36,000  Level Jacksonville Center
Sat 07:33:38 PM 31.7806 -82.2058 183° South 443 510 36,000  Level Jacksonville Center
Sat 07:34:38 PM 31.6636 -82.2336 191° South 443 510 36,000  Level Jacksonville Center
Sat 07:35:38 PM 31.5492 -82.2856 201° Southwest 442 509 36,000  Level Jacksonville Center
Sat 07:36:38 PM 31.4594 -82.3275 202° Southwest 447 514 36,000  Level Jacksonville Center
Sat 07:37:38 PM 31.3242 -82.3819 199° South 442 509 36,000  Level Jacksonville Center
Sat 07:38:38 PM 31.2053 -82.4214 196° South 442 509 36,000  Level Jacksonville Center
Sat 07:39:38 PM 31.0906 -82.4608 196° South 442 509 36,000  Level Jacksonville Center
Sat 07:40:38 PM 30.9778 -82.4928 194° South 437 503 36,000  Level Jacksonville Center
Sat 07:41:38 PM 30.8589 -82.5175 190° South 432 497 36,000  Level Jacksonville Center
Sat 07:42:38 PM 30.7483 -82.5275 184° South 437 503 36,000  Level Jacksonville Center
Sat 07:43:38 PM 30.6333 -82.5086 172° South 437 503 36,000 -500 Level Jacksonville Center
Sat 07:44:38 PM 30.5186 -82.4947 174° South 432 497 35,000 -950 Descending Jacksonville Center
Sat 07:45:38 PM 30.3994 -82.4783 173° South 427 491 34,100 -800 Descending Jacksonville Center
Sat 07:46:38 PM 30.2844 -82.4619 173° South 427 491 33,400 -700 Descending Jacksonville Center
Sat 07:47:38 PM 30.1675 -82.4456 173° South 427 491 32,700 -750 Descending Jacksonville Center
Sat 07:48:38 PM 30.0444 -82.4269 173° South 433 498 31,900 -750 Descending Jacksonville Center
Sat 07:49:38 PM 29.9231 -82.4036 171° South 438 504 31,200 -850 Descending Jacksonville Center
Sat 07:50:38 PM 29.7894 -82.3853 173° South 444 511 30,200 -1,000 Descending Jacksonville Center
Sat 07:51:38 PM 29.6664 -82.3717 175° South 444 511 29,200 -1,650 Descending Jacksonville Center
Sat 07:52:38 PM 29.5431 -82.3531 173° South 444 511 26,900 -1,600 Descending Jacksonville Center
Sat 07:53:38 PM 29.4261 -82.3394 174° South 439 505 26,000 -1,000 Descending Jacksonville Center
Sat 07:54:38 PM 29.3008 -82.3233 174° South 439 505 24,900 -2,050 Descending Jacksonville Center
Sat 07:55:38 PM 29.1797 -82.3122 175° South 444 511 21,900 -2,900 Descending Jacksonville Center
Sat 07:56:38 PM 29.0647 -82.2986 174° South 438 504 19,100 -2,750 Descending Jacksonville Center
Sat 07:57:38 PM 28.9561 -82.2828 173° South 422 486 16,400 -1,931 Descending Jacksonville Center
Sat 08:00:00 PM 28.7333 -82.2667 176° South 309 356 12,600 -1,604 Descending Tampa TRACON
Sat 08:01:00 PM 28.6500 -82.2500 170° South 290 334 11,000 -800 Descending Tampa TRACON
Sat 08:02:00 PM 28.5667 -82.2500 180° South 291 335 11,000 -50 Level Tampa TRACON
Sat 08:03:00 PM 28.4833 -82.2667 190° South 300 345 10,900 -750 Descending Tampa TRACON
Sat 08:04:00 PM 28.4167 -82.3167 213° Southwest 291 335 9,500 -1,500 Descending Tampa TRACON
Sat 08:05:00 PM 28.3500 -82.3667 213° Southwest 284 327 7,900 -1,550 Descending Tampa TRACON
Sat 08:06:00 PM 28.2833 -82.4167 213° Southwest 277 319 6,400 -1,550 Descending Tampa TRACON
Sat 08:07:00 PM 28.2333 -82.4500 210° Southwest 264 304 4,800 -1,800 Descending Tampa TRACON
Sat 08:08:00 PM 28.1667 -82.4833 204° Southwest 261 300 2,800 -1,450 Descending Tampa TRACON
Sat 08:09:00 PM 28.1000 -82.5167 204° Southwest 217 250 1,900 -900 Descending Tampa TRACON

Login

Don't have an account? Register now (free) for customized features, flight alerts, and more!